Language: 


Des rapports , des résumés tant et plus, au choix de chacun....


Données statistiques de la station
Quotidien Rapport Janvier 4, 2018 Unités:  les deux    Anglais   Métrique
« Précédent Jour
Suivant Jour »
Quotidien Hebdomadaire Mensuel Annuel Actuel
  Haut: Bas: Moyen:
Température: TemperatureC °F /  -17.8 °C 0.0 °F /  -17.8 °C 9.5 °F /  -12.5 °C
Pt de rosée: DewpointC °F /  -17.8 °C 5.0 °F /  -15 °C 7.9 °F /  -13.4 °C
Humidité: Humidity % 0 % 87 %
Vitesse du vent: WindSpeedKMH mph /  0 km/h - 20.3 mph /  32.7 km/h
Rafales: WindSpeedGustKMH mph /  0 km/h - -
Vent:- - WSW
Pression: PressurehPa in /  0 hPa 0.0 in /  0 hPa -
Précipitation: 13.2 in /  335.28 mm    
Historical Graphs
 
 
Données statistiques pour Janvier 4, 2018
Heure Température Point de rosée Pression Vent Vitesse du vent Refales Humidité Pluie (taux horaire)
TemperatureC °F /  -17.8 °C DewpointC °F /  -17.8 °C PressurehPa in /  0 hPa Calm     Humidity % HourlyPrecipMM in /  0 mm
00:00 8.4 °F /  -13.1 °C 6.0 °F /  -14.4 °C 1000.9 in /  33890.5 hPa West 16.3 mph /  26.2 km/h 22.7 mph /  36.5 km/h 82 % 0.0 in /  0 mm
00:08 8.4 °F /  -13.1 °C 6.0 °F /  -14.4 °C 1000.9 in /  33890.5 hPa West 15.8 mph /  25.4 km/h 24.5 mph /  39.4 km/h 82 % 0.0 in /  0 mm
00:11 8.4 °F /  -13.1 °C 6.0 °F /  -14.4 °C 1001.9 in /  33924.3 hPa WSW 23.3 mph /  37.5 km/h 24.5 mph /  39.4 km/h 82 % 0.0 in /  0 mm
00:13 8.4 °F /  -13.1 °C 6.0 °F /  -14.4 °C 1001.9 in /  33924.3 hPa WSW 27.7 mph /  44.6 km/h 27.7 mph /  44.6 km/h 82 % 0.0 in /  0 mm
00:18 8.3 °F /  -13.2 °C 6.0 °F /  -14.4 °C 1001.9 in /  33924.3 hPa West 14.8 mph /  23.8 km/h 27.7 mph /  44.6 km/h 83 % 0.0 in /  0 mm
00:21 8.3 °F /  -13.2 °C 6.0 °F /  -14.4 °C 1001.9 in /  33924.3 hPa West 20.6 mph /  33.2 km/h 27.7 mph /  44.6 km/h 83 % 0.0 in /  0 mm
00:26 8.4 °F /  -13.1 °C 6.0 °F /  -14.4 °C 1000.9 in /  33890.5 hPa WSW 23.8 mph /  38.3 km/h 27.0 mph /  43.5 km/h 83 % 0.0 in /  0 mm
00:32 8.3 °F /  -13.2 °C 6.0 °F /  -14.4 °C 1000.9 in /  33890.5 hPa WSW 15.4 mph /  24.8 km/h 27.0 mph /  43.5 km/h 83 % 0.0 in /  0 mm
00:33 8.4 °F /  -13.1 °C 6.0 °F /  -14.4 °C 1000.9 in /  33890.5 hPa WSW 23.3 mph /  37.5 km/h 27.7 mph /  44.6 km/h 83 % 0.0 in /  0 mm
00:34 8.4 °F /  -13.1 °C 6.0 °F /  -14.4 °C 1000.9 in /  33890.5 hPa West 25.9 mph /  41.7 km/h 27.7 mph /  44.6 km/h 83 % 0.0 in /  0 mm
00:38 8.4 °F /  -13.1 °C 6.0 °F /  -14.4 °C 1000.9 in /  33890.5 hPa WSW 14.0 mph /  22.5 km/h 27.7 mph /  44.6 km/h 84 % 0.0 in /  0 mm
00:39 8.4 °F /  -13.1 °C 6.0 °F /  -14.4 °C 1000.9 in /  33890.5 hPa WSW 13.0 mph /  20.9 km/h 27.7 mph /  44.6 km/h 84 % 0.0 in /  0 mm
00:46 8.3 °F /  -13.2 °C 6.0 °F /  -14.4 °C 1000.9 in /  33890.5 hPa West 17.2 mph /  27.7 km/h 25.3 mph /  40.7 km/h 84 % 0.0 in /  0 mm
00:49 8.3 °F /  -13.2 °C 6.0 °F /  -14.4 °C 1000.9 in /  33890.5 hPa West 22.4 mph /  36 km/h 25.3 mph /  40.7 km/h 84 % 0.0 in /  0 mm
00:54 8.3 °F /  -13.2 °C 6.0 °F /  -14.4 °C 1000.9 in /  33890.5 hPa WSW 11.9 mph /  19.2 km/h 23.8 mph /  38.3 km/h 84 % 0.0 in /  0 mm
00:57 8.3 °F /  -13.2 °C 6.0 °F /  -14.4 °C 1000.9 in /  33890.5 hPa West 17.2 mph /  27.7 km/h 22.4 mph /  36 km/h 84 % 0.0 in /  0 mm
01:00 8.3 °F /  -13.2 °C 6.0 °F /  -14.4 °C 1000.9 in /  33890.5 hPa WSW 13.0 mph /  20.9 km/h 23.8 mph /  38.3 km/h 84 % 0.0 in /  0 mm
01:08 8.3 °F /  -13.2 °C 6.0 °F /  -14.4 °C 1000.9 in /  33890.5 hPa WSW 16.9 mph /  27.2 km/h 25.9 mph /  41.7 km/h 84 % 0.0 in /  0 mm
01:10 8.3 °F /  -13.2 °C 6.0 °F /  -14.4 °C 1000.9 in /  33890.5 hPa WSW 17.2 mph /  27.7 km/h 25.9 mph /  41.7 km/h 84 % 0.0 in /  0 mm
01:15 8.2 °F /  -13.2 °C 6.0 °F /  -14.4 °C 1000.9 in /  33890.5 hPa WSW 18.3 mph /  29.5 km/h 25.9 mph /  41.7 km/h 84 % 0.0 in /  0 mm
01:16 8.2 °F /  -13.2 °C 6.0 °F /  -14.4 °C 1000.9 in /  33890.5 hPa WSW 14.0 mph /  22.5 km/h 25.9 mph /  41.7 km/h 84 % 0.0 in /  0 mm
01:21 8.2 °F /  -13.2 °C 6.0 °F /  -14.4 °C 1000.9 in /  33890.5 hPa West 17.2 mph /  27.7 km/h 25.6 mph /  41.2 km/h 85 % 0.0 in /  0 mm
01:26 8.1 °F /  -13.3 °C 6.0 °F /  -14.4 °C 1000.9 in /  33890.5 hPa WSW 15.8 mph /  25.4 km/h 25.6 mph /  41.2 km/h 85 % 0.0 in /  0 mm
01:28 8.1 °F /  -13.3 °C 6.0 °F /  -14.4 °C 1000.9 in /  33890.5 hPa West 13.7 mph /  22 km/h 17.2 mph /  27.7 km/h 85 % 0.0 in /  0 mm
01:30 8.0 °F /  -13.3 °C 6.0 °F /  -14.4 °C 1000.9 in /  33890.5 hPa WSW 13.7 mph /  22 km/h 17.2 mph /  27.7 km/h 85 % 0.0 in /  0 mm
01:33 8.0 °F /  -13.3 °C 6.0 °F /  -14.4 °C 1000.9 in /  33890.5 hPa WSW 11.9 mph /  19.2 km/h 16.9 mph /  27.2 km/h 85 % 0.0 in /  0 mm
01:36 7.9 °F /  -13.4 °C 6.0 °F /  -14.4 °C 1000.9 in /  33890.5 hPa WSW 14.3 mph /  23 km/h 17.7 mph /  28.5 km/h 85 % 0.0 in /  0 mm
01:41 7.9 °F /  -13.4 °C 6.0 °F /  -14.4 °C 1000.9 in /  33890.5 hPa WSW 12.6 mph /  20.3 km/h 17.7 mph /  28.5 km/h 86 % 0.0 in /  0 mm
01:44 7.9 °F /  -13.4 °C 6.0 °F /  -14.4 °C 1000.9 in /  33890.5 hPa WSW 15.8 mph /  25.4 km/h 17.7 mph /  28.5 km/h 86 % 0.0 in /  0 mm
01:49 7.9 °F /  -13.4 °C 6.0 °F /  -14.4 °C 1000.9 in /  33890.5 hPa WSW 13.7 mph /  22 km/h 17.7 mph /  28.5 km/h 87 % 0.0 in /  0 mm
01:54 7.9 °F /  -13.4 °C 6.0 °F /  -14.4 °C 1000.9 in /  33890.5 hPa WSW 15.4 mph /  24.8 km/h 20.1 mph /  32.3 km/h 87 % 0.0 in /  0 mm
01:56 7.9 °F /  -13.4 °C 6.0 °F /  -14.4 °C 1000.9 in /  33890.5 hPa WSW 12.6 mph /  20.3 km/h 20.1 mph /  32.3 km/h 87 % 0.0 in /  0 mm
02:01 7.9 °F /  -13.4 °C 6.0 °F /  -14.4 °C 1000.9 in /  33890.5 hPa WSW 13.7 mph /  22 km/h 20.1 mph /  32.3 km/h 88 % 0.0 in /  0 mm
02:02 7.9 °F /  -13.4 °C 6.0 °F /  -14.4 °C 1000.9 in /  33890.5 hPa WSW 13.0 mph /  20.9 km/h 20.1 mph /  32.3 km/h 88 % 0.0 in /  0 mm
02:07 7.9 °F /  -13.4 °C 6.0 °F /  -14.4 °C 1000.9 in /  33890.5 hPa WSW 15.8 mph /  25.4 km/h 20.6 mph /  33.2 km/h 89 % 0.0 in /  0 mm
02:12 7.9 °F /  -13.4 °C 6.0 °F /  -14.4 °C 1000.9 in /  33890.5 hPa WSW 12.2 mph /  19.6 km/h 20.6 mph /  33.2 km/h 89 % 0.0 in /  0 mm
02:13 7.9 °F /  -13.4 °C 6.0 °F /  -14.4 °C 1000.9 in /  33890.5 hPa WSW 12.6 mph /  20.3 km/h 20.6 mph /  33.2 km/h 89 % 0.0 in /  0 mm
02:18 7.9 °F /  -13.4 °C 6.0 °F /  -14.4 °C 1000.9 in /  33890.5 hPa WSW 13.0 mph /  20.9 km/h 20.9 mph /  33.6 km/h 89 % 0.0 in /  0 mm
02:20 7.9 °F /  -13.4 °C 6.0 °F /  -14.4 °C 1000.9 in /  33890.5 hPa WSW 12.6 mph /  20.3 km/h 20.9 mph /  33.6 km/h 90 % 0.0 in /  0 mm
02:25 7.9 °F /  -13.4 °C 6.0 °F /  -14.4 °C 1000.9 in /  33890.5 hPa WSW 13.7 mph /  22 km/h 20.9 mph /  33.6 km/h 90 % 0.0 in /  0 mm
02:28 8.0 °F /  -13.3 °C 7.0 °F /  -13.9 °C 1000.9 in /  33890.5 hPa West 17.2 mph /  27.7 km/h 22.4 mph /  36 km/h 90 % 0.0 in /  0 mm
02:33 8.0 °F /  -13.3 °C 7.0 °F /  -13.9 °C 1000.9 in /  33890.5 hPa WSW 13.0 mph /  20.9 km/h 22.4 mph /  36 km/h 90 % 0.0 in /  0 mm
02:34 8.0 °F /  -13.3 °C 7.0 °F /  -13.9 °C 1000.9 in /  33890.5 hPa WSW 14.0 mph /  22.5 km/h 22.4 mph /  36 km/h 90 % 0.0 in /  0 mm
02:40 8.0 °F /  -13.3 °C 7.0 °F /  -13.9 °C 1000.9 in /  33890.5 hPa WSW 10.1 mph /  16.3 km/h 19.5 mph /  31.4 km/h 90 % 0.0 in /  0 mm
02:41 8.0 °F /  -13.3 °C 7.0 °F /  -13.9 °C 1000.9 in /  33890.5 hPa WSW 16.6 mph /  26.7 km/h 16.9 mph /  27.2 km/h 90 % 0.0 in /  0 mm
02:47 7.9 °F /  -13.4 °C 6.0 °F /  -14.4 °C 1000.9 in /  33890.5 hPa WSW 11.6 mph /  18.7 km/h 16.9 mph /  27.2 km/h 90 % 0.0 in /  0 mm
02:52 7.9 °F /  -13.4 °C 6.0 °F /  -14.4 °C 1000.9 in /  33890.5 hPa WSW 12.2 mph /  19.6 km/h 16.3 mph /  26.2 km/h 90 % 0.0 in /  0 mm
02:55 7.9 °F /  -13.4 °C 6.0 °F /  -14.4 °C 1000.9 in /  33890.5 hPa WSW 13.0 mph /  20.9 km/h 15.8 mph /  25.4 km/h 90 % 0.0 in /  0 mm
02:57 7.9 °F /  -13.4 °C 6.0 °F /  -14.4 °C 1000.9 in /  33890.5 hPa WSW 14.0 mph /  22.5 km/h 16.3 mph /  26.2 km/h 90 % 0.0 in /  0 mm
03:02 7.9 °F /  -13.4 °C 7.0 °F /  -13.9 °C 1000.9 in /  33890.5 hPa WSW 14.0 mph /  22.5 km/h 16.3 mph /  26.2 km/h 91 % 0.0 in /  0 mm
03:03 7.9 °F /  -13.4 °C 7.0 °F /  -13.9 °C 1000.9 in /  33890.5 hPa WSW 17.2 mph /  27.7 km/h 17.2 mph /  27.7 km/h 91 % 0.0 in /  0 mm
03:08 8.0 °F /  -13.3 °C 7.0 °F /  -13.9 °C 1000.9 in /  33890.5 hPa WSW 13.7 mph /  22 km/h 19.5 mph /  31.4 km/h 92 % 0.0 in /  0 mm
03:12 8.0 °F /  -13.3 °C 7.0 °F /  -13.9 °C 999.9 in /  33856.6 hPa SW 11.9 mph /  19.2 km/h 19.5 mph /  31.4 km/h 92 % 0.0 in /  0 mm
03:14 8.0 °F /  -13.3 °C 7.0 °F /  -13.9 °C 999.9 in /  33856.6 hPa SSW 12.2 mph /  19.6 km/h 19.5 mph /  31.4 km/h 92 % 0.0 in /  0 mm
03:19 8.1 °F /  -13.3 °C 7.0 °F /  -13.9 °C 999.9 in /  33856.6 hPa WSW 10.8 mph /  17.4 km/h 15.4 mph /  24.8 km/h 92 % 0.0 in /  0 mm
03:20 8.1 °F /  -13.3 °C 7.0 °F /  -13.9 °C 999.9 in /  33856.6 hPa WSW 12.2 mph /  19.6 km/h 15.4 mph /  24.8 km/h 92 % 0.0 in /  0 mm
03:22 8.1 °F /  -13.3 °C 7.0 °F /  -13.9 °C 999.9 in /  33856.6 hPa WSW 10.5 mph /  16.9 km/h 15.8 mph /  25.4 km/h 92 % 0.0 in /  0 mm
03:26 8.2 °F /  -13.2 °C 7.0 °F /  -13.9 °C 999.9 in /  33856.6 hPa WSW 13.0 mph /  20.9 km/h 15.8 mph /  25.4 km/h 92 % 0.0 in /  0 mm
03:28 8.2 °F /  -13.2 °C 7.0 °F /  -13.9 °C 999.9 in /  33856.6 hPa WSW 12.6 mph /  20.3 km/h 15.8 mph /  25.4 km/h 93 % 0.0 in /  0 mm
03:33 8.2 °F /  -13.2 °C 7.0 °F /  -13.9 °C 999.9 in /  33856.6 hPa WSW 11.1 mph /  17.9 km/h 16.3 mph /  26.2 km/h 93 % 0.0 in /  0 mm
03:38 8.2 °F /  -13.2 °C 7.0 °F /  -13.9 °C 999.9 in /  33856.6 hPa WSW 8.7 mph /  14 km/h 16.3 mph /  26.2 km/h 93 % 0.0 in /  0 mm
03:41 8.2 °F /  -13.2 °C 7.0 °F /  -13.9 °C 999.9 in /  33856.6 hPa WSW 14.0 mph /  22.5 km/h 14.0 mph /  22.5 km/h 93 % 0.0 in /  0 mm
03:46 8.3 °F /  -13.2 °C 8.0 °F /  -13.3 °C 999.9 in /  33856.6 hPa WSW 10.1 mph /  16.3 km/h 14.0 mph /  22.5 km/h 93 % 0.0 in /  0 mm
03:52 8.3 °F /  -13.2 °C 8.0 °F /  -13.3 °C 999.9 in /  33856.6 hPa WSW 14.0 mph /  22.5 km/h 14.0 mph /  22.5 km/h 93 % 0.0 in /  0 mm
03:53 8.3 °F /  -13.2 °C 8.0 °F /  -13.3 °C 999.9 in /  33856.6 hPa WSW 9.3 mph /  15 km/h 14.0 mph /  22.5 km/h 94 % 0.0 in /  0 mm
03:58 8.4 °F /  -13.1 °C 8.0 °F /  -13.3 °C 999.9 in /  33856.6 hPa WSW 14.0 mph /  22.5 km/h 14.0 mph /  22.5 km/h 94 % 0.0 in /  0 mm
04:00 8.4 °F /  -13.1 °C 8.0 °F /  -13.3 °C 999.9 in /  33856.6 hPa WSW 10.1 mph /  16.3 km/h 14.0 mph /  22.5 km/h 94 % 0.0 in /  0 mm
04:05 8.5 °F /  -13.1 °C 8.0 °F /  -13.3 °C 999.9 in /  33856.6 hPa WSW 10.5 mph /  16.9 km/h 14.0 mph /  22.5 km/h 94 % 0.0 in /  0 mm
04:08 8.5 °F /  -13.1 °C 8.0 °F /  -13.3 °C 999.9 in /  33856.6 hPa WSW 11.6 mph /  18.7 km/h 14.0 mph /  22.5 km/h 94 % 0.0 in /  0 mm
04:12 8.5 °F /  -13.1 °C 8.0 °F /  -13.3 °C 999.9 in /  33856.6 hPa WSW 12.2 mph /  19.6 km/h 13.7 mph /  22 km/h 94 % 0.0 in /  0 mm
04:13 8.5 °F /  -13.1 °C 8.0 °F /  -13.3 °C 999.9 in /  33856.6 hPa WSW 12.6 mph /  20.3 km/h 16.3 mph /  26.2 km/h 95 % 0.0 in /  0 mm
04:18 8.5 °F /  -13.1 °C 8.0 °F /  -13.3 °C 999.9 in /  33856.6 hPa WSW 12.6 mph /  20.3 km/h 20.6 mph /  33.2 km/h 95 % 0.0 in /  0 mm
04:22 8.6 °F /  -13 °C 8.0 °F /  -13.3 °C 999.9 in /  33856.6 hPa WSW 13.7 mph /  22 km/h 20.9 mph /  33.6 km/h 95 % 0.0 in /  0 mm
04:29 8.6 °F /  -13 °C 8.0 °F /  -13.3 °C 999.9 in /  33856.6 hPa WSW 11.6 mph /  18.7 km/h 20.9 mph /  33.6 km/h 95 % 0.0 in /  0 mm
04:34 8.7 °F /  -12.9 °C 8.0 °F /  -13.3 °C 999.9 in /  33856.6 hPa WSW 10.1 mph /  16.3 km/h 20.9 mph /  33.6 km/h 95 % 0.0 in /  0 mm
04:39 8.7 °F /  -12.9 °C 8.0 °F /  -13.3 °C 999.9 in /  33856.6 hPa WSW 10.1 mph /  16.3 km/h 16.9 mph /  27.2 km/h 95 % 0.0 in /  0 mm
04:42 8.7 °F /  -12.9 °C 8.0 °F /  -13.3 °C 998.9 in /  33822.8 hPa WSW 7.9 mph /  12.7 km/h 16.9 mph /  27.2 km/h 95 % 0.0 in /  0 mm
04:48 8.7 °F /  -12.9 °C 8.0 °F /  -13.3 °C 998.9 in /  33822.8 hPa WSW 10.5 mph /  16.9 km/h 16.3 mph /  26.2 km/h 95 % 0.0 in /  0 mm
04:53 8.7 °F /  -12.9 °C 8.0 °F /  -13.3 °C 998.9 in /  33822.8 hPa WSW 12.6 mph /  20.3 km/h 14.0 mph /  22.5 km/h 94 % 0.0 in /  0 mm
04:54 8.7 °F /  -12.9 °C 8.0 °F /  -13.3 °C 998.9 in /  33822.8 hPa WSW 11.9 mph /  19.2 km/h 17.2 mph /  27.7 km/h 94 % 0.0 in /  0 mm
04:55 8.7 °F /  -12.9 °C 8.0 °F /  -13.3 °C 998.9 in /  33822.8 hPa WSW 10.5 mph /  16.9 km/h 17.2 mph /  27.7 km/h 94 % 0.0 in /  0 mm
05:00 8.7 °F /  -12.9 °C 8.0 °F /  -13.3 °C 998.9 in /  33822.8 hPa SW 10.5 mph /  16.9 km/h 17.2 mph /  27.7 km/h 94 % 0.0 in /  0 mm
05:03 8.8 °F /  -12.9 °C 8.0 °F /  -13.3 °C 998.9 in /  33822.8 hPa WSW 12.2 mph /  19.6 km/h 17.2 mph /  27.7 km/h 94 % 0.0 in /  0 mm
05:08 8.8 °F /  -12.9 °C 8.0 °F /  -13.3 °C 998.9 in /  33822.8 hPa WSW 9.7 mph /  15.6 km/h 16.3 mph /  26.2 km/h 94 % 0.0 in /  0 mm
05:11 8.8 °F /  -12.9 °C 8.0 °F /  -13.3 °C 998.9 in /  33822.8 hPa SW 12.2 mph /  19.6 km/h 15.8 mph /  25.4 km/h 94 % 0.0 in /  0 mm
05:14 8.8 °F /  -12.9 °C 8.0 °F /  -13.3 °C 998.9 in /  33822.8 hPa SW 9.0 mph /  14.5 km/h 14.0 mph /  22.5 km/h 94 % 0.0 in /  0 mm
05:15 8.8 °F /  -12.9 °C 8.0 °F /  -13.3 °C 998.9 in /  33822.8 hPa SW 9.0 mph /  14.5 km/h 14.0 mph /  22.5 km/h 94 % 0.0 in /  0 mm
05:16 8.8 °F /  -12.9 °C 8.0 °F /  -13.3 °C 998.9 in /  33822.8 hPa SW 10.5 mph /  16.9 km/h 14.0 mph /  22.5 km/h 94 % 0.0 in /  0 mm
05:17 8.8 °F /  -12.9 °C 8.0 °F /  -13.3 °C 998.9 in /  33822.8 hPa WSW 10.1 mph /  16.3 km/h 14.0 mph /  22.5 km/h 94 % 0.0 in /  0 mm
05:18 8.8 °F /  -12.9 °C 8.0 °F /  -13.3 °C 998.9 in /  33822.8 hPa SSW 5.8 mph /  9.3 km/h 14.0 mph /  22.5 km/h 94 % 0.0 in /  0 mm
05:19 8.8 °F /  -12.9 °C 8.0 °F /  -13.3 °C 998.9 in /  33822.8 hPa WSW 8.7 mph /  14 km/h 14.0 mph /  22.5 km/h 94 % 0.0 in /  0 mm
05:20 8.8 °F /  -12.9 °C 8.0 °F /  -13.3 °C 998.9 in /  33822.8 hPa SW 10.1 mph /  16.3 km/h 13.0 mph /  20.9 km/h 94 % 0.0 in /  0 mm
05:22 8.7 °F /  -12.9 °C 8.0 °F /  -13.3 °C 998.9 in /  33822.8 hPa WSW 7.9 mph /  12.7 km/h 12.6 mph /  20.3 km/h 95 % 0.0 in /  0 mm
05:23 8.7 °F /  -12.9 °C 8.0 °F /  -13.3 °C 998.9 in /  33822.8 hPa WSW 9.7 mph /  15.6 km/h 12.6 mph /  20.3 km/h 95 % 0.0 in /  0 mm
05:26 8.7 °F /  -12.9 °C 8.0 °F /  -13.3 °C 998.9 in /  33822.8 hPa WSW 10.1 mph /  16.3 km/h 12.6 mph /  20.3 km/h 95 % 0.0 in /  0 mm
05:31 8.7 °F /  -12.9 °C 8.0 °F /  -13.3 °C 998.9 in /  33822.8 hPa SW 7.9 mph /  12.7 km/h 12.6 mph /  20.3 km/h 95 % 0.0 in /  0 mm
05:36 8.6 °F /  -13 °C 8.0 °F /  -13.3 °C 998.9 in /  33822.8 hPa SW 8.7 mph /  14 km/h 11.9 mph /  19.2 km/h 95 % 0.0 in /  0 mm
05:38 8.6 °F /  -13 °C 8.0 °F /  -13.3 °C 998.9 in /  33822.8 hPa SW 6.4 mph /  10.3 km/h 11.1 mph /  17.9 km/h 95 % 0.0 in /  0 mm
05:39 8.6 °F /  -13 °C 8.0 °F /  -13.3 °C 998.9 in /  33822.8 hPa WSW 9.7 mph /  15.6 km/h 11.1 mph /  17.9 km/h 95 % 0.0 in /  0 mm
05:43 8.6 °F /  -13 °C 9.0 °F /  -12.8 °C 997.9 in /  33788.9 hPa SW 9.0 mph /  14.5 km/h 14.0 mph /  22.5 km/h 96 % 0.0 in /  0 mm
05:44 8.6 °F /  -13 °C 9.0 °F /  -12.8 °C 997.9 in /  33788.9 hPa SSW 9.0 mph /  14.5 km/h 14.0 mph /  22.5 km/h 96 % 0.0 in /  0 mm
05:47 8.5 °F /  -13.1 °C 9.0 °F /  -12.8 °C 997.9 in /  33788.9 hPa WSW 10.5 mph /  16.9 km/h 14.0 mph /  22.5 km/h 96 % 0.0 in /  0 mm
05:50 8.5 °F /  -13.1 °C 9.0 °F /  -12.8 °C 997.9 in /  33788.9 hPa WSW 7.9 mph /  12.7 km/h 13.0 mph /  20.9 km/h 96 % 0.0 in /  0 mm
05:53 8.5 °F /  -13.1 °C 9.0 °F /  -12.8 °C 997.9 in /  33788.9 hPa WSW 10.1 mph /  16.3 km/h 12.2 mph /  19.6 km/h 96 % 0.0 in /  0 mm
05:56 8.5 °F /  -13.1 °C 9.0 °F /  -12.8 °C 997.9 in /  33788.9 hPa SW 9.3 mph /  15 km/h 11.9 mph /  19.2 km/h 96 % 0.0 in /  0 mm
05:58 8.5 °F /  -13.1 °C 9.0 °F /  -12.8 °C 997.9 in /  33788.9 hPa SSW 5.8 mph /  9.3 km/h 14.0 mph /  22.5 km/h 96 % 0.0 in /  0 mm
06:03 8.5 °F /  -13.1 °C 9.0 °F /  -12.8 °C 997.9 in /  33788.9 hPa SSW 12.6 mph /  20.3 km/h 14.0 mph /  22.5 km/h 96 % 0.0 in /  0 mm
06:12 8.5 °F /  -13.1 °C 9.0 °F /  -12.8 °C 997.9 in /  33788.9 hPa SW 6.1 mph /  9.8 km/h 12.6 mph /  20.3 km/h 97 % 0.3 in /  7.62 mm
06:17 8.4 °F /  -13.1 °C 8.0 °F /  -13.3 °C 997.9 in /  33788.9 hPa SSW 9.3 mph /  15 km/h 10.5 mph /  16.9 km/h 97 % 0.3 in /  7.62 mm
06:23 8.4 °F /  -13.1 °C 9.0 °F /  -12.8 °C 997.9 in /  33788.9 hPa SSW 5.0 mph /  8 km/h 10.5 mph /  16.9 km/h 98 % 0.3 in /  7.62 mm
06:24 8.4 °F /  -13.1 °C 9.0 °F /  -12.8 °C 997.9 in /  33788.9 hPa SW 9.7 mph /  15.6 km/h 10.5 mph /  16.9 km/h 98 % 0.3 in /  7.62 mm
06:29 8.4 °F /  -13.1 °C 9.0 °F /  -12.8 °C 997.9 in /  33788.9 hPa SSW 5.0 mph /  8 km/h 10.5 mph /  16.9 km/h 98 % 0.5 in /  12.7 mm
06:34 8.4 °F /  -13.1 °C 9.0 °F /  -12.8 °C 997.9 in /  33788.9 hPa SSW 7.6 mph /  12.2 km/h 12.2 mph /  19.6 km/h 98 % 0.5 in /  12.7 mm
06:37 8.3 °F /  -13.2 °C 9.0 °F /  -12.8 °C 997.9 in /  33788.9 hPa SSW 10.1 mph /  16.3 km/h 12.2 mph /  19.6 km/h 98 % 0.5 in /  12.7 mm
06:41 8.3 °F /  -13.2 °C 9.0 °F /  -12.8 °C 997.9 in /  33788.9 hPa SSW 9.0 mph /  14.5 km/h 10.8 mph /  17.4 km/h 98 % 0.5 in /  12.7 mm
06:42 8.3 °F /  -13.2 °C 9.0 °F /  -12.8 °C 997.9 in /  33788.9 hPa SSW 8.7 mph /  14 km/h 10.8 mph /  17.4 km/h 98 % 0.5 in /  12.7 mm
06:47 8.3 °F /  -13.2 °C 9.0 °F /  -12.8 °C 997.9 in /  33788.9 hPa SSW 5.8 mph /  9.3 km/h 10.8 mph /  17.4 km/h 98 % 0.8 in /  20.32 mm
06:49 8.3 °F /  -13.2 °C 9.0 °F /  -12.8 °C 997.9 in /  33788.9 hPa Calm   9.7 mph /  15.6 km/h 98 % 0.8 in /  20.32 mm
06:51 8.3 °F /  -13.2 °C 9.0 °F /  -12.8 °C 997.9 in /  33788.9 hPa SSW 5.0 mph /  8 km/h 9.7 mph /  15.6 km/h 98 % 1.3 in /  33.02 mm
06:54 8.3 °F /  -13.2 °C 9.0 °F /  -12.8 °C 997.9 in /  33788.9 hPa Calm   8.7 mph /  14 km/h 98 % 1.3 in /  33.02 mm
06:59 8.3 °F /  -13.2 °C 9.0 °F /  -12.8 °C 997.9 in /  33788.9 hPa Calm   5.8 mph /  9.3 km/h 98 % 1.3 in /  33.02 mm
07:00 8.2 °F /  -13.2 °C 8.0 °F /  -13.3 °C 997.9 in /  33788.9 hPa Calm   5.8 mph /  9.3 km/h 98 % 1.5 in /  38.1 mm
07:04 8.2 °F /  -13.2 °C 8.0 °F /  -13.3 °C 997.9 in /  33788.9 hPa SSW 5.5 mph /  8.9 km/h 5.8 mph /  9.3 km/h 98 % 1.5 in /  38.1 mm
07:09 8.2 °F /  -13.2 °C 8.0 °F /  -13.3 °C 997.9 in /  33788.9 hPa Calm   6.4 mph /  10.3 km/h 98 % 1.5 in /  38.1 mm
07:12 8.2 °F /  -13.2 °C 8.0 °F /  -13.3 °C 996.8 in /  33751.6 hPa Calm   6.4 mph /  10.3 km/h 98 % 1.5 in /  38.1 mm
07:18 8.2 °F /  -13.2 °C 8.0 °F /  -13.3 °C 996.8 in /  33751.6 hPa Calm   7.6 mph /  12.2 km/h 98 % 1.8 in /  45.72 mm
07:23 8.2 °F /  -13.2 °C 8.0 °F /  -13.3 °C 996.8 in /  33751.6 hPa Calm   7.9 mph /  12.7 km/h 98 % 1.8 in /  45.72 mm
07:26 8.2 °F /  -13.2 °C 8.0 °F /  -13.3 °C 996.8 in /  33751.6 hPa SSW 6.4 mph /  10.3 km/h 8.7 mph /  14 km/h 98 % 2.3 in /  58.42 mm
07:30 8.1 °F /  -13.3 °C 8.0 °F /  -13.3 °C 996.8 in /  33751.6 hPa SSW 5.8 mph /  9.3 km/h 8.7 mph /  14 km/h 98 % 1.8 in /  45.72 mm
07:32 8.1 °F /  -13.3 °C 8.0 °F /  -13.3 °C 996.8 in /  33751.6 hPa SSW 5.8 mph /  9.3 km/h 8.7 mph /  14 km/h 98 % 1.8 in /  45.72 mm
07:34 8.1 °F /  -13.3 °C 8.0 °F /  -13.3 °C 996.8 in /  33751.6 hPa SSW 9.3 mph /  15 km/h 10.1 mph /  16.3 km/h 98 % 1.8 in /  45.72 mm
07:36 8.1 °F /  -13.3 °C 8.0 °F /  -13.3 °C 996.8 in /  33751.6 hPa SSW 7.9 mph /  12.7 km/h 10.1 mph /  16.3 km/h 98 % 2.3 in /  58.42 mm
07:38 8.1 °F /  -13.3 °C 8.0 °F /  -13.3 °C 996.8 in /  33751.6 hPa SSW 6.4 mph /  10.3 km/h 10.1 mph /  16.3 km/h 98 % 2.3 in /  58.42 mm
07:39 8.1 °F /  -13.3 °C 8.0 °F /  -13.3 °C 996.8 in /  33751.6 hPa SSW 5.8 mph /  9.3 km/h 10.1 mph /  16.3 km/h 98 % 2.3 in /  58.42 mm
07:44 8.1 °F /  -13.3 °C 8.0 °F /  -13.3 °C 996.8 in /  33751.6 hPa Calm   9.3 mph /  15 km/h 98 % 2.3 in /  58.42 mm
07:47 8.1 °F /  -13.3 °C 8.0 °F /  -13.3 °C 996.8 in /  33751.6 hPa SSW 7.9 mph /  12.7 km/h 11.9 mph /  19.2 km/h 98 % 2.3 in /  58.42 mm
07:48 8.1 °F /  -13.3 °C 8.0 °F /  -13.3 °C 996.8 in /  33751.6 hPa SSW 7.9 mph /  12.7 km/h 11.9 mph /  19.2 km/h 98 % 2.3 in /  58.42 mm
07:51 8.1 °F /  -13.3 °C 8.0 °F /  -13.3 °C 996.8 in /  33751.6 hPa South 6.4 mph /  10.3 km/h 11.9 mph /  19.2 km/h 98 % 2.3 in /  58.42 mm
07:54 8.1 °F /  -13.3 °C 8.0 °F /  -13.3 °C 996.8 in /  33751.6 hPa South 9.0 mph /  14.5 km/h 11.9 mph /  19.2 km/h 98 % 2.5 in /  63.5 mm
07:59 8.1 °F /  -13.3 °C 8.0 °F /  -13.3 °C 996.8 in /  33751.6 hPa South 1.4 mph /  2.3 km/h 9.7 mph /  15.6 km/h 98 % 2.5 in /  63.5 mm
08:04 8.0 °F /  -13.3 °C 8.0 °F /  -13.3 °C 996.8 in /  33751.6 hPa Calm   9.7 mph /  15.6 km/h 98 % 2.5 in /  63.5 mm
08:06 8.0 °F /  -13.3 °C 8.0 °F /  -13.3 °C 996.8 in /  33751.6 hPa Calm   9.7 mph /  15.6 km/h 98 % 2.5 in /  63.5 mm
08:11 8.0 °F /  -13.3 °C 8.0 °F /  -13.3 °C 996.8 in /  33751.6 hPa SSW 4.7 mph /  7.6 km/h 13.0 mph /  20.9 km/h 98 % 2.5 in /  63.5 mm
08:12 8.0 °F /  -13.3 °C 8.0 °F /  -13.3 °C 996.8 in /  33751.6 hPa South 10.1 mph /  16.3 km/h 13.0 mph /  20.9 km/h 98 % 2.5 in /  63.5 mm
08:14 8.0 °F /  -13.3 °C 8.0 °F /  -13.3 °C 996.8 in /  33751.6 hPa South 9.7 mph /  15.6 km/h 13.0 mph /  20.9 km/h 98 % 2.5 in /  63.5 mm
08:18 8.0 °F /  -13.3 °C 8.0 °F /  -13.3 °C 996.8 in /  33751.6 hPa SSW 6.9 mph /  11.1 km/h 13.0 mph /  20.9 km/h 98 % 2.3 in /  58.42 mm
08:19 8.0 °F /  -13.3 °C 8.0 °F /  -13.3 °C 996.8 in /  33751.6 hPa SSW 7.9 mph /  12.7 km/h 13.0 mph /  20.9 km/h 98 % 2.5 in /  63.5 mm
08:24 8.0 °F /  -13.3 °C 8.0 °F /  -13.3 °C 996.8 in /  33751.6 hPa South 8.7 mph /  14 km/h 9.7 mph /  15.6 km/h 98 % 2.3 in /  58.42 mm
08:26 8.0 °F /  -13.3 °C 8.0 °F /  -13.3 °C 996.8 in /  33751.6 hPa South 6.1 mph /  9.8 km/h 9.3 mph /  15 km/h 98 % 2.3 in /  58.42 mm
08:30 8.0 °F /  -13.3 °C 8.0 °F /  -13.3 °C 996.8 in /  33751.6 hPa South 9.3 mph /  15 km/h 9.3 mph /  15 km/h 98 % 2.5 in /  63.5 mm
08:36 8.0 °F /  -13.3 °C 8.0 °F /  -13.3 °C 996.8 in /  33751.6 hPa South 9.3 mph /  15 km/h 10.8 mph /  17.4 km/h 98 % 2.3 in /  58.42 mm
08:37 8.0 °F /  -13.3 °C 8.0 °F /  -13.3 °C 996.8 in /  33751.6 hPa SSE 10.1 mph /  16.3 km/h 10.8 mph /  17.4 km/h 98 % 2.3 in /  58.42 mm
08:39 7.9 °F /  -13.4 °C 8.0 °F /  -13.3 °C 996.8 in /  33751.6 hPa SSE 5.8 mph /  9.3 km/h 10.8 mph /  17.4 km/h 98 % 2.5 in /  63.5 mm
08:42 7.9 °F /  -13.4 °C 8.0 °F /  -13.3 °C 996.8 in /  33751.6 hPa South 8.7 mph /  14 km/h 11.6 mph /  18.7 km/h 98 % 2.3 in /  58.42 mm
08:45 7.9 °F /  -13.4 °C 8.0 °F /  -13.3 °C 996.8 in /  33751.6 hPa SSE 6.4 mph /  10.3 km/h 11.6 mph /  18.7 km/h 98 % 2.3 in /  58.42 mm
08:50 7.9 °F /  -13.4 °C 8.0 °F /  -13.3 °C 996.8 in /  33751.6 hPa South 9.0 mph /  14.5 km/h 11.6 mph /  18.7 km/h 98 % 1.8 in /  45.72 mm
08:51 7.9 °F /  -13.4 °C 8.0 °F /  -13.3 °C 996.8 in /  33751.6 hPa South 6.4 mph /  10.3 km/h 11.6 mph /  18.7 km/h 98 % 2.3 in /  58.42 mm
08:53 7.9 °F /  -13.4 °C 8.0 °F /  -13.3 °C 996.8 in /  33751.6 hPa Calm   10.1 mph /  16.3 km/h 98 % 2.3 in /  58.42 mm
08:58 7.9 °F /  -13.4 °C 8.0 °F /  -13.3 °C 996.2 in /  33731.3 hPa South 8.7 mph /  14 km/h 10.5 mph /  16.9 km/h 98 % 1.8 in /  45.72 mm
09:00 7.9 °F /  -13.4 °C 8.0 °F /  -13.3 °C 996.2 in /  33731.3 hPa South 10.1 mph /  16.3 km/h 11.9 mph /  19.2 km/h 98 % 1.5 in /  38.1 mm
09:02 7.9 °F /  -13.4 °C 8.0 °F /  -13.3 °C 996.2 in /  33731.3 hPa SSE 6.1 mph /  9.8 km/h 11.9 mph /  19.2 km/h 98 % 1.8 in /  45.72 mm
09:07 7.9 °F /  -13.4 °C 8.0 °F /  -13.3 °C 996.2 in /  33731.3 hPa SSE 5.5 mph /  8.9 km/h 11.9 mph /  19.2 km/h 98 % 1.8 in /  45.72 mm
09:10 7.9 °F /  -13.4 °C 8.0 °F /  -13.3 °C 996.2 in /  33731.3 hPa SSW 6.4 mph /  10.3 km/h 11.9 mph /  19.2 km/h 98 % 1.5 in /  38.1 mm
09:14 8.0 °F /  -13.3 °C 8.0 °F /  -13.3 °C 996.2 in /  33731.3 hPa South 6.9 mph /  11.1 km/h 13.7 mph /  22 km/h 98 % 1.5 in /  38.1 mm
09:17 8.0 °F /  -13.3 °C 8.0 °F /  -13.3 °C 996.2 in /  33731.3 hPa South 6.1 mph /  9.8 km/h 13.7 mph /  22 km/h 98 % 1.8 in /  45.72 mm
09:22 8.0 °F /  -13.3 °C 8.0 °F /  -13.3 °C 996.2 in /  33731.3 hPa South 6.4 mph /  10.3 km/h 10.1 mph /  16.3 km/h 98 % 1.5 in /  38.1 mm
09:24 8.0 °F /  -13.3 °C 8.0 °F /  -13.3 °C 996.2 in /  33731.3 hPa South 1.4 mph /  2.3 km/h 10.1 mph /  16.3 km/h 98 % 1.8 in /  45.72 mm
09:27 8.0 °F /  -13.3 °C 8.0 °F /  -13.3 °C 994.1 in /  33660.2 hPa SSW 9.3 mph /  15 km/h 12.2 mph /  19.6 km/h 98 % 1.5 in /  38.1 mm
09:30 8.0 °F /  -13.3 °C 8.0 °F /  -13.3 °C 994.1 in /  33660.2 hPa South 12.6 mph /  20.3 km/h 12.6 mph /  20.3 km/h 98 % 1.5 in /  38.1 mm
09:33 8.0 °F /  -13.3 °C 8.0 °F /  -13.3 °C 994.1 in /  33660.2 hPa SSW 5.8 mph /  9.3 km/h 13.0 mph /  20.9 km/h 98 % 1.5 in /  38.1 mm
09:35 8.0 °F /  -13.3 °C 8.0 °F /  -13.3 °C 994.1 in /  33660.2 hPa SSW 9.7 mph /  15.6 km/h 13.0 mph /  20.9 km/h 98 % 1.8 in /  45.72 mm
09:36 8.0 °F /  -13.3 °C 8.0 °F /  -13.3 °C 994.1 in /  33660.2 hPa SSW 6.4 mph /  10.3 km/h 13.0 mph /  20.9 km/h 98 % 1.8 in /  45.72 mm
09:38 8.1 °F /  -13.3 °C 8.0 °F /  -13.3 °C 994.1 in /  33660.2 hPa SSW 9.0 mph /  14.5 km/h 15.4 mph /  24.8 km/h 98 % 1.5 in /  38.1 mm
09:43 8.1 °F /  -13.3 °C 8.0 °F /  -13.3 °C 995.1 in /  33694.1 hPa SW 5.5 mph /  8.9 km/h 15.4 mph /  24.8 km/h 98 % 1.8 in /  45.72 mm
09:48 8.1 °F /  -13.3 °C 8.0 °F /  -13.3 °C 995.1 in /  33694.1 hPa South 9.7 mph /  15.6 km/h 10.5 mph /  16.9 km/h 98 % 1.8 in /  45.72 mm
09:51 8.1 °F /  -13.3 °C 8.0 °F /  -13.3 °C 995.1 in /  33694.1 hPa South 9.0 mph /  14.5 km/h 15.4 mph /  24.8 km/h 98 % 1.8 in /  45.72 mm
09:54 8.1 °F /  -13.3 °C 8.0 °F /  -13.3 °C 995.1 in /  33694.1 hPa WSW 11.6 mph /  18.7 km/h 15.4 mph /  24.8 km/h 98 % 1.8 in /  45.72 mm
09:59 8.2 °F /  -13.2 °C 8.0 °F /  -13.3 °C 995.1 in /  33694.1 hPa SSW 12.2 mph /  19.6 km/h 15.4 mph /  24.8 km/h 98 % 2.3 in /  58.42 mm
10:03 8.3 °F /  -13.2 °C 9.0 °F /  -12.8 °C 995.1 in /  33694.1 hPa SW 9.3 mph /  15 km/h 14.0 mph /  22.5 km/h 98 % 1.8 in /  45.72 mm
10:08 8.3 °F /  -13.2 °C 9.0 °F /  -12.8 °C 995.1 in /  33694.1 hPa South 13.7 mph /  22 km/h 14.0 mph /  22.5 km/h 98 % 2.3 in /  58.42 mm
10:13 8.3 °F /  -13.2 °C 9.0 °F /  -12.8 °C 995.1 in /  33694.1 hPa SSW 5.5 mph /  8.9 km/h 14.0 mph /  22.5 km/h 98 % 2.5 in /  63.5 mm
10:14 8.4 °F /  -13.1 °C 9.0 °F /  -12.8 °C 995.1 in /  33694.1 hPa South 1.8 mph /  2.9 km/h 14.0 mph /  22.5 km/h 98 % 2.3 in /  58.42 mm
10:16 8.4 °F /  -13.1 °C 9.0 °F /  -12.8 °C 995.1 in /  33694.1 hPa WSW 6.4 mph /  10.3 km/h 14.0 mph /  22.5 km/h 98 % 2.5 in /  63.5 mm
10:21 8.4 °F /  -13.1 °C 9.0 °F /  -12.8 °C 995.1 in /  33694.1 hPa South 11.6 mph /  18.7 km/h 14.0 mph /  22.5 km/h 98 % 2.5 in /  63.5 mm
10:26 8.5 °F /  -13.1 °C 9.0 °F /  -12.8 °C 995.1 in /  33694.1 hPa South 13.7 mph /  22 km/h 17.2 mph /  27.7 km/h 98 % 2.5 in /  63.5 mm
10:30 8.5 °F /  -13.1 °C 9.0 °F /  -12.8 °C 995.1 in /  33694.1 hPa South 6.4 mph /  10.3 km/h 17.2 mph /  27.7 km/h 98 % 2.8 in /  71.12 mm
10:35 8.5 °F /  -13.1 °C 9.0 °F /  -12.8 °C 995.1 in /  33694.1 hPa South 6.9 mph /  11.1 km/h 17.2 mph /  27.7 km/h 98 % 2.8 in /  71.12 mm
10:38 8.6 °F /  -13 °C 9.0 °F /  -12.8 °C 995.1 in /  33694.1 hPa SSW 9.3 mph /  15 km/h 14.0 mph /  22.5 km/h 98 % 3.0 in /  76.2 mm
10:43 8.6 °F /  -13 °C 9.0 °F /  -12.8 °C 994.1 in /  33660.2 hPa South 12.2 mph /  19.6 km/h 15.4 mph /  24.8 km/h 98 % 3.0 in /  76.2 mm
10:48 8.6 °F /  -13 °C 9.0 °F /  -12.8 °C 994.1 in /  33660.2 hPa South 9.3 mph /  15 km/h 15.4 mph /  24.8 km/h 98 % 3.3 in /  83.82 mm
10:52 8.6 °F /  -13 °C 9.0 °F /  -12.8 °C 994.1 in /  33660.2 hPa South 11.9 mph /  19.2 km/h 15.4 mph /  24.8 km/h 98 % 3.3 in /  83.82 mm
10:56 8.7 °F /  -12.9 °C 9.0 °F /  -12.8 °C 994.1 in /  33660.2 hPa South 7.6 mph /  12.2 km/h 13.7 mph /  22 km/h 98 % 3.8 in /  96.52 mm
11:01 8.7 °F /  -12.9 °C 9.0 °F /  -12.8 °C 994.1 in /  33660.2 hPa South 7.9 mph /  12.7 km/h 13.0 mph /  20.9 km/h 98 % 3.8 in /  96.52 mm
11:05 8.8 °F /  -12.9 °C 9.0 °F /  -12.8 °C 994.1 in /  33660.2 hPa South 8.7 mph /  14 km/h 11.6 mph /  18.7 km/h 98 % 3.3 in /  83.82 mm
11:06 8.8 °F /  -12.9 °C 9.0 °F /  -12.8 °C 994.1 in /  33660.2 hPa South 12.6 mph /  20.3 km/h 13.7 mph /  22 km/h 98 % 3.8 in /  96.52 mm
11:11 8.8 °F /  -12.9 °C 9.0 °F /  -12.8 °C 994.1 in /  33660.2 hPa SSW 6.1 mph /  9.8 km/h 13.7 mph /  22 km/h 98 % 3.3 in /  83.82 mm
11:16 8.9 °F /  -12.8 °C 9.0 °F /  -12.8 °C 994.1 in /  33660.2 hPa SSW 9.0 mph /  14.5 km/h 14.0 mph /  22.5 km/h 98 % 3.3 in /  83.82 mm
11:17 8.9 °F /  -12.8 °C 9.0 °F /  -12.8 °C 994.1 in /  33660.2 hPa SW 8.7 mph /  14 km/h 14.0 mph /  22.5 km/h 98 % 3.3 in /  83.82 mm
11:22 9.0 °F /  -12.8 °C 9.0 °F /  -12.8 °C 994.1 in /  33660.2 hPa SSW 9.7 mph /  15.6 km/h 14.0 mph /  22.5 km/h 98 % 3.0 in /  76.2 mm
11:26 9.1 °F /  -12.7 °C 9.0 °F /  -12.8 °C 994.1 in /  33660.2 hPa South 5.8 mph /  9.3 km/h 13.7 mph /  22 km/h 98 % 3.3 in /  83.82 mm
11:28 9.2 °F /  -12.7 °C 9.0 °F /  -12.8 °C 994.1 in /  33660.2 hPa SSW 6.4 mph /  10.3 km/h 13.7 mph /  22 km/h 98 % 3.0 in /  76.2 mm
11:32 9.3 °F /  -12.6 °C 9.0 °F /  -12.8 °C 994.1 in /  33660.2 hPa SW 9.3 mph /  15 km/h 13.7 mph /  22 km/h 98 % 3.0 in /  76.2 mm
11:36 9.4 °F /  -12.6 °C 9.0 °F /  -12.8 °C 994.1 in /  33660.2 hPa WSW 13.7 mph /  22 km/h 13.7 mph /  22 km/h 98 % 2.8 in /  71.12 mm
11:38 9.4 °F /  -12.6 °C 9.0 °F /  -12.8 °C 994.1 in /  33660.2 hPa SW 8.7 mph /  14 km/h 15.8 mph /  25.4 km/h 98 % 2.8 in /  71.12 mm
11:43 9.6 °F /  -12.4 °C 10.0 °F /  -12.2 °C 993.1 in /  33626.4 hPa WSW 10.5 mph /  16.9 km/h 15.8 mph /  25.4 km/h 98 % 2.5 in /  63.5 mm
11:46 9.8 °F /  -12.3 °C 10.0 °F /  -12.2 °C 993.1 in /  33626.4 hPa SSW 12.2 mph /  19.6 km/h 15.8 mph /  25.4 km/h 98 % 2.3 in /  58.42 mm
11:51 10.1 °F /  -12.2 °C 10.0 °F /  -12.2 °C 993.1 in /  33626.4 hPa WSW 16.6 mph /  26.7 km/h 17.2 mph /  27.7 km/h 98 % 2.3 in /  58.42 mm
11:54 10.2 °F /  -12.1 °C 10.0 °F /  -12.2 °C 993.1 in /  33626.4 hPa WSW 16.9 mph /  27.2 km/h 20.9 mph /  33.6 km/h 98 % 1.8 in /  45.72 mm
11:59 10.7 °F /  -11.8 °C 11.0 °F /  -11.7 °C 993.1 in /  33626.4 hPa WSW 16.6 mph /  26.7 km/h 24.8 mph /  39.9 km/h 98 % 1.5 in /  38.1 mm
12:01 10.8 °F /  -11.8 °C 11.0 °F /  -11.7 °C 993.1 in /  33626.4 hPa WSW 20.9 mph /  33.6 km/h 25.3 mph /  40.7 km/h 98 % 1.5 in /  38.1 mm
12:06 11.3 °F /  -11.5 °C 11.0 °F /  -11.7 °C 993.1 in /  33626.4 hPa West 24.8 mph /  39.9 km/h 33.8 mph /  54.4 km/h 98 % 1.3 in /  33.02 mm
12:12 11.7 °F /  -11.3 °C 12.0 °F /  -11.1 °C 992.1 in /  33592.5 hPa WSW 32.8 mph /  52.8 km/h 37.0 mph /  59.5 km/h 98 % 1.3 in /  33.02 mm
12:16 12.0 °F /  -11.1 °C 12.0 °F /  -11.1 °C 992.1 in /  33592.5 hPa WSW 27.4 mph /  44.1 km/h 38.9 mph /  62.6 km/h 98 % 1.0 in /  25.4 mm
12:21 12.2 °F /  -11 °C 12.0 °F /  -11.1 °C 992.1 in /  33592.5 hPa WSW 26.7 mph /  43 km/h 45.7 mph /  73.5 km/h 98 % 1.0 in /  25.4 mm
12:26 12.3 °F /  -10.9 °C 13.0 °F /  -10.6 °C 993.1 in /  33626.4 hPa WSW 35.6 mph /  57.3 km/h 45.7 mph /  73.5 km/h 98 % 0.8 in /  20.32 mm
12:27 12.4 °F /  -10.9 °C 13.0 °F /  -10.6 °C 993.1 in /  33626.4 hPa WSW 33.1 mph /  53.3 km/h 45.7 mph /  73.5 km/h 98 % 0.8 in /  20.32 mm
12:32 12.4 °F /  -10.9 °C 13.0 °F /  -10.6 °C 993.1 in /  33626.4 hPa West 30.2 mph /  48.6 km/h 42.2 mph /  67.9 km/h 98 % 0.5 in /  12.7 mm
12:35 12.5 °F /  -10.8 °C 13.0 °F /  -10.6 °C 993.1 in /  33626.4 hPa WSW 24.8 mph /  39.9 km/h 42.2 mph /  67.9 km/h 98 % 0.5 in /  12.7 mm
12:40 12.5 °F /  -10.8 °C 13.0 °F /  -10.6 °C 993.1 in /  33626.4 hPa West 42.5 mph /  68.4 km/h 42.5 mph /  68.4 km/h 98 % 0.5 in /  12.7 mm
12:42 12.5 °F /  -10.8 °C 13.0 °F /  -10.6 °C 993.1 in /  33626.4 hPa WSW 23.8 mph /  38.3 km/h 42.5 mph /  68.4 km/h 98 % 0.5 in /  12.7 mm
12:48 12.5 °F /  -10.8 °C 13.0 °F /  -10.6 °C 993.1 in /  33626.4 hPa WSW 28.5 mph /  45.9 km/h 44.6 mph /  71.8 km/h 98 % 0.5 in /  12.7 mm
12:49 12.5 °F /  -10.8 °C 13.0 °F /  -10.6 °C 993.1 in /  33626.4 hPa West 31.7 mph /  51 km/h 44.6 mph /  71.8 km/h 98 % 0.5 in /  12.7 mm
12:54 12.6 °F /  -10.8 °C 13.0 °F /  -10.6 °C 993.1 in /  33626.4 hPa West 40.7 mph /  65.5 km/h 45.7 mph /  73.5 km/h 98 % 0.3 in /  7.62 mm
12:56 12.6 °F /  -10.8 °C 13.0 °F /  -10.6 °C 993.1 in /  33626.4 hPa WSW 28.8 mph /  46.3 km/h 45.7 mph /  73.5 km/h 98 % 0.3 in /  7.62 mm
12:57 12.6 °F /  -10.8 °C 13.0 °F /  -10.6 °C 993.1 in /  33626.4 hPa West 44.6 mph /  71.8 km/h 45.7 mph /  73.5 km/h 98 % 0.3 in /  7.62 mm
13:03 12.7 °F /  -10.7 °C 13.0 °F /  -10.6 °C 993.1 in /  33626.4 hPa WSW 26.2 mph /  42.2 km/h 44.6 mph /  71.8 km/h 98 % 0.3 in /  7.62 mm
13:08 12.8 °F /  -10.7 °C 13.0 °F /  -10.6 °C 993.1 in /  33626.4 hPa WSW 20.6 mph /  33.2 km/h 41.4 mph /  66.6 km/h 98 % 0.3 in /  7.62 mm
13:09 12.8 °F /  -10.7 °C 13.0 °F /  -10.6 °C 993.1 in /  33626.4 hPa WSW 24.5 mph /  39.4 km/h 41.4 mph /  66.6 km/h 98 % 0.3 in /  7.62 mm
13:14 12.8 °F /  -10.7 °C 13.0 °F /  -10.6 °C 993.1 in /  33626.4 hPa West 21.6 mph /  34.8 km/h 42.5 mph /  68.4 km/h 98 % 0.3 in /  7.62 mm
13:15 12.8 °F /  -10.7 °C 13.0 °F /  -10.6 °C 993.1 in /  33626.4 hPa West 20.1 mph /  32.3 km/h 42.5 mph /  68.4 km/h 98 % 0.3 in /  7.62 mm
13:21 12.9 °F /  -10.6 °C 13.0 °F /  -10.6 °C 993.1 in /  33626.4 hPa West 28.8 mph /  46.3 km/h 42.5 mph /  68.4 km/h 98 % 0.3 in /  7.62 mm
13:26 12.9 °F /  -10.6 °C 13.0 °F /  -10.6 °C 994.1 in /  33660.2 hPa WSW 24.8 mph /  39.9 km/h 41.0 mph /  66 km/h 98 % 0.3 in /  7.62 mm
13:31 12.9 °F /  -10.6 °C 13.0 °F /  -10.6 °C 994.1 in /  33660.2 hPa West 35.6 mph /  57.3 km/h 40.4 mph /  65 km/h 98 % 0.0 in /  0 mm
13:36 13.0 °F /  -10.6 °C 13.0 °F /  -10.6 °C 994.1 in /  33660.2 hPa West 38.1 mph /  61.3 km/h 47.9 mph /  77.1 km/h 98 % 0.0 in /  0 mm
13:38 13.0 °F /  -10.6 °C 13.0 °F /  -10.6 °C 994.1 in /  33660.2 hPa WSW 26.7 mph /  43 km/h 47.9 mph /  77.1 km/h 98 % 0.0 in /  0 mm
13:39 13.0 °F /  -10.6 °C 13.0 °F /  -10.6 °C 994.1 in /  33660.2 hPa West 43.6 mph /  70.2 km/h 48.6 mph /  78.2 km/h 98 % 0.0 in /  0 mm
13:41 13.1 °F /  -10.5 °C 13.0 °F /  -10.6 °C 993.1 in /  33626.4 hPa West 38.9 mph /  62.6 km/h 48.6 mph /  78.2 km/h 97 % 0.0 in /  0 mm
13:47 13.1 °F /  -10.5 °C 13.0 °F /  -10.6 °C 993.1 in /  33626.4 hPa West 27.7 mph /  44.6 km/h 48.6 mph /  78.2 km/h 96 % 0.0 in /  0 mm
13:48 13.1 °F /  -10.5 °C 13.0 °F /  -10.6 °C 993.1 in /  33626.4 hPa West 23.0 mph /  37 km/h 45.7 mph /  73.5 km/h 96 % 0.0 in /  0 mm
13:53 13.1 °F /  -10.5 °C 13.0 °F /  -10.6 °C 993.1 in /  33626.4 hPa West 36.4 mph /  58.6 km/h 45.7 mph /  73.5 km/h 95 % 0.0 in /  0 mm
13:54 13.1 °F /  -10.5 °C 13.0 °F /  -10.6 °C 993.1 in /  33626.4 hPa WSW 37.0 mph /  59.5 km/h 50.0 mph /  80.5 km/h 95 % 0.0 in /  0 mm
13:58 13.1 °F /  -10.5 °C 12.0 °F /  -11.1 °C 993.1 in /  33626.4 hPa West 37.5 mph /  60.3 km/h 50.0 mph /  80.5 km/h 94 % 0.0 in /  0 mm
14:03 13.1 °F /  -10.5 °C 12.0 °F /  -11.1 °C 993.1 in /  33626.4 hPa West 38.1 mph /  61.3 km/h 50.0 mph /  80.5 km/h 94 % 0.0 in /  0 mm
14:04 13.1 °F /  -10.5 °C 12.0 °F /  -11.1 °C 993.1 in /  33626.4 hPa WSW 21.2 mph /  34.1 km/h 46.0 mph /  74 km/h 94 % 0.0 in /  0 mm
14:05 13.1 °F /  -10.5 °C 12.0 °F /  -11.1 °C 993.1 in /  33626.4 hPa West 39.3 mph /  63.2 km/h 43.6 mph /  70.2 km/h 94 % 0.0 in /  0 mm
14:10 13.1 °F /  -10.5 °C 12.0 °F /  -11.1 °C 993.1 in /  33626.4 hPa WSW 42.5 mph /  68.4 km/h 42.5 mph /  68.4 km/h 93 % 0.0 in /  0 mm
14:14 13.1 °F /  -10.5 °C 12.0 °F /  -11.1 °C 993.1 in /  33626.4 hPa WSW 38.5 mph /  62 km/h 48.6 mph /  78.2 km/h 93 % 0.0 in /  0 mm
14:17 13.1 °F /  -10.5 °C 12.0 °F /  -11.1 °C 993.1 in /  33626.4 hPa WSW 37.0 mph /  59.5 km/h 48.6 mph /  78.2 km/h 92 % 0.0 in /  0 mm
14:23 13.1 °F /  -10.5 °C 12.0 °F /  -11.1 °C 993.1 in /  33626.4 hPa WSW 41.4 mph /  66.6 km/h 48.6 mph /  78.2 km/h 91 % 0.0 in /  0 mm
14:25 13.1 °F /  -10.5 °C 12.0 °F /  -11.1 °C 993.1 in /  33626.4 hPa WSW 27.7 mph /  44.6 km/h 46.5 mph /  74.8 km/h 91 % 0.0 in /  0 mm
14:30 13.0 °F /  -10.6 °C 12.0 °F /  -11.1 °C 993.1 in /  33626.4 hPa WSW 24.8 mph /  39.9 km/h 52.1 mph /  83.8 km/h 90 % 0.0 in /  0 mm
14:32 13.0 °F /  -10.6 °C 12.0 °F /  -11.1 °C 993.1 in /  33626.4 hPa West 42.5 mph /  68.4 km/h 52.1 mph /  83.8 km/h 90 % 0.0 in /  0 mm
14:37 12.9 °F /  -10.6 °C 12.0 °F /  -11.1 °C 993.1 in /  33626.4 hPa WSW 40.4 mph /  65 km/h 51.2 mph /  82.4 km/h 89 % 0.0 in /  0 mm
14:38 12.9 °F /  -10.6 °C 12.0 °F /  -11.1 °C 993.1 in /  33626.4 hPa WSW 38.9 mph /  62.6 km/h 51.2 mph /  82.4 km/h 89 % 0.0 in /  0 mm
14:40 12.8 °F /  -10.7 °C 12.0 °F /  -11.1 °C 993.1 in /  33626.4 hPa WSW 38.1 mph /  61.3 km/h 51.2 mph /  82.4 km/h 89 % 0.0 in /  0 mm
14:41 12.8 °F /  -10.7 °C 11.0 °F /  -11.7 °C 992.1 in /  33592.5 hPa WSW 45.1 mph /  72.6 km/h 51.2 mph /  82.4 km/h 88 % 0.0 in /  0 mm
14:45 12.9 °F /  -10.6 °C 11.0 °F /  -11.7 °C 992.1 in /  33592.5 hPa WSW 28.0 mph /  45.1 km/h 58.7 mph /  94.5 km/h 87 % 0.0 in /  0 mm
14:50 12.9 °F /  -10.6 °C 11.0 °F /  -11.7 °C 992.1 in /  33592.5 hPa West 38.9 mph /  62.6 km/h 58.7 mph /  94.5 km/h 87 % 0.0 in /  0 mm
14:51 12.9 °F /  -10.6 °C 11.0 °F /  -11.7 °C 992.1 in /  33592.5 hPa WSW 40.4 mph /  65 km/h 58.7 mph /  94.5 km/h 87 % 0.0 in /  0 mm
14:56 13.0 °F /  -10.6 °C 11.0 °F /  -11.7 °C 992.1 in /  33592.5 hPa West 39.6 mph /  63.7 km/h 52.9 mph /  85.1 km/h 85 % 0.0 in /  0 mm
15:01 13.1 °F /  -10.5 °C 11.0 °F /  -11.7 °C 992.1 in /  33592.5 hPa WSW 37.8 mph /  60.8 km/h 59.1 mph /  95.1 km/h 84 % 0.0 in /  0 mm
15:06 13.0 °F /  -10.6 °C 10.0 °F /  -12.2 °C 992.1 in /  33592.5 hPa WSW 40.7 mph /  65.5 km/h 59.1 mph /  95.1 km/h 83 % 0.0 in /  0 mm
15:08 13.0 °F /  -10.6 °C 10.0 °F /  -12.2 °C 992.1 in /  33592.5 hPa West 37.5 mph /  60.3 km/h 56.8 mph /  91.4 km/h 83 % 0.0 in /  0 mm
15:13 13.0 °F /  -10.6 °C 10.0 °F /  -12.2 °C 992.1 in /  33592.5 hPa WSW 44.6 mph /  71.8 km/h 55.3 mph /  89 km/h 82 % 0.0 in /  0 mm
15:16 13.0 °F /  -10.6 °C 10.0 °F /  -12.2 °C 992.1 in /  33592.5 hPa West 52.1 mph /  83.8 km/h 55.3 mph /  89 km/h 83 % 0.0 in /  0 mm
15:21 12.9 °F /  -10.6 °C 10.0 °F /  -12.2 °C 992.1 in /  33592.5 hPa WSW 39.3 mph /  63.2 km/h 52.1 mph /  83.8 km/h 82 % 0.0 in /  0 mm
15:24 12.9 °F /  -10.6 °C 10.0 °F /  -12.2 °C 992.1 in /  33592.5 hPa WSW 39.6 mph /  63.7 km/h 52.1 mph /  83.8 km/h 82 % 0.0 in /  0 mm
15:26 12.9 °F /  -10.6 °C 10.0 °F /  -12.2 °C 993.1 in /  33626.4 hPa WSW 38.1 mph /  61.3 km/h 52.1 mph /  83.8 km/h 81 % 0.0 in /  0 mm
15:31 12.8 °F /  -10.7 °C 10.0 °F /  -12.2 °C 993.1 in /  33626.4 hPa WSW 46.0 mph /  74 km/h 51.8 mph /  83.4 km/h 82 % 0.0 in /  0 mm
15:36 12.8 °F /  -10.7 °C 10.0 °F /  -12.2 °C 993.1 in /  33626.4 hPa WSW 42.5 mph /  68.4 km/h 60.8 mph /  97.8 km/h 80 % 0.0 in /  0 mm
15:38 12.8 °F /  -10.7 °C 10.0 °F /  -12.2 °C 993.1 in /  33626.4 hPa West 47.1 mph /  75.8 km/h 60.8 mph /  97.8 km/h 80 % 0.0 in /  0 mm
15:43 12.6 °F /  -10.8 °C 10.0 °F /  -12.2 °C 993.1 in /  33626.4 hPa WSW 46.5 mph /  74.8 km/h 59.1 mph /  95.1 km/h 80 % 0.0 in /  0 mm
15:48 12.6 °F /  -10.8 °C 9.0 °F /  -12.8 °C 993.1 in /  33626.4 hPa WSW 51.2 mph /  82.4 km/h 62.9 mph /  101.2 km/h 76 % 0.0 in /  0 mm
15:49 12.5 °F /  -10.8 °C 9.0 °F /  -12.8 °C 993.1 in /  33626.4 hPa WSW 41.7 mph /  67.1 km/h 62.9 mph /  101.2 km/h 75 % 0.0 in /  0 mm
15:54 12.4 °F /  -10.9 °C 9.0 °F /  -12.8 °C 993.1 in /  33626.4 hPa West 41.7 mph /  67.1 km/h 62.9 mph /  101.2 km/h 75 % 0.0 in /  0 mm
15:56 12.5 °F /  -10.8 °C 9.0 °F /  -12.8 °C 992.1 in /  33592.5 hPa West 51.8 mph /  83.4 km/h 71.0 mph /  114.3 km/h 75 % 0.0 in /  0 mm
16:00 12.4 °F /  -10.9 °C 9.0 °F /  -12.8 °C 992.1 in /  33592.5 hPa West 36.7 mph /  59.1 km/h 71.0 mph /  114.3 km/h 75 % 0.0 in /  0 mm
16:06 12.4 °F /  -10.9 °C 8.0 °F /  -13.3 °C 992.1 in /  33592.5 hPa West 45.1 mph /  72.6 km/h 71.0 mph /  114.3 km/h 74 % 0.0 in /  0 mm
16:12 12.3 °F /  -10.9 °C 9.0 °F /  -12.8 °C 993.1 in /  33626.4 hPa WSW 31.7 mph /  51 km/h 57.6 mph /  92.7 km/h 75 % 0.0 in /  0 mm
16:17 12.3 °F /  -10.9 °C 9.0 °F /  -12.8 °C 993.1 in /  33626.4 hPa West 32.0 mph /  51.5 km/h 57.6 mph /  92.7 km/h 75 % 0.0 in /  0 mm
16:20 12.3 °F /  -10.9 °C 9.0 °F /  -12.8 °C 993.1 in /  33626.4 hPa West 45.7 mph /  73.5 km/h 57.6 mph /  92.7 km/h 75 % 0.0 in /  0 mm
16:25 12.2 °F /  -11 °C 9.0 °F /  -12.8 °C 993.1 in /  33626.4 hPa West 42.5 mph /  68.4 km/h 61.6 mph /  99.1 km/h 77 % 0.0 in /  0 mm
16:26 12.2 °F /  -11 °C 9.0 °F /  -12.8 °C 992.1 in /  33592.5 hPa West 35.6 mph /  57.3 km/h 61.6 mph /  99.1 km/h 77 % 0.0 in /  0 mm
16:31 12.2 °F /  -11 °C 8.0 °F /  -13.3 °C 992.1 in /  33592.5 hPa WSW 37.8 mph /  60.8 km/h 61.6 mph /  99.1 km/h 76 % 0.0 in /  0 mm
16:34 12.1 °F /  -11.1 °C 8.0 °F /  -13.3 °C 992.1 in /  33592.5 hPa WSW 42.8 mph /  68.9 km/h 59.7 mph /  96.1 km/h 76 % 0.0 in /  0 mm
16:39 12.0 °F /  -11.1 °C 8.0 °F /  -13.3 °C 992.1 in /  33592.5 hPa WSW 48.3 mph /  77.7 km/h 59.7 mph /  96.1 km/h 74 % 0.0 in /  0 mm
16:44 11.9 °F /  -11.2 °C 8.0 °F /  -13.3 °C 993.1 in /  33626.4 hPa West 33.1 mph /  53.3 km/h 59.7 mph /  96.1 km/h 75 % 0.0 in /  0 mm
16:46 11.8 °F /  -11.2 °C 7.0 °F /  -13.9 °C 993.1 in /  33626.4 hPa West 59.1 mph /  95.1 km/h 59.1 mph /  95.1 km/h 74 % 0.0 in /  0 mm
16:51 11.8 °F /  -11.2 °C 7.0 °F /  -13.9 °C 993.1 in /  33626.4 hPa West 42.8 mph /  68.9 km/h 59.1 mph /  95.1 km/h 74 % 0.0 in /  0 mm
16:55 11.7 °F /  -11.3 °C 7.0 °F /  -13.9 °C 993.1 in /  33626.4 hPa WSW 60.2 mph /  96.9 km/h 64.8 mph /  104.3 km/h 74 % 0.0 in /  0 mm
16:56 11.7 °F /  -11.3 °C 7.0 °F /  -13.9 °C 993.1 in /  33626.4 hPa West 36.4 mph /  58.6 km/h 64.8 mph /  104.3 km/h 73 % 0.0 in /  0 mm
16:59 11.7 °F /  -11.3 °C 7.0 °F /  -13.9 °C 993.1 in /  33626.4 hPa West 40.7 mph /  65.5 km/h 64.8 mph /  104.3 km/h 74 % 0.0 in /  0 mm
17:04 11.5 °F /  -11.4 °C 7.0 °F /  -13.9 °C 993.1 in /  33626.4 hPa West 36.7 mph /  59.1 km/h 64.8 mph /  104.3 km/h 74 % 0.0 in /  0 mm
17:05 11.5 °F /  -11.4 °C 7.0 °F /  -13.9 °C 993.1 in /  33626.4 hPa West 37.5 mph /  60.3 km/h 60.2 mph /  96.9 km/h 74 % 0.0 in /  0 mm
17:11 11.5 °F /  -11.4 °C 7.0 °F /  -13.9 °C 993.1 in /  33626.4 hPa WNW 42.2 mph /  67.9 km/h 62.9 mph /  101.2 km/h 72 % 0.0 in /  0 mm
17:16 11.4 °F /  -11.4 °C 7.0 °F /  -13.9 °C 993.1 in /  33626.4 hPa West 37.5 mph /  60.3 km/h 62.9 mph /  101.2 km/h 73 % 0.0 in /  0 mm
17:18 11.4 °F /  -11.4 °C 7.0 °F /  -13.9 °C 993.1 in /  33626.4 hPa WNW 32.8 mph /  52.8 km/h 55.3 mph /  89 km/h 73 % 0.0 in /  0 mm
17:21 11.4 °F /  -11.4 °C 7.0 °F /  -13.9 °C 993.1 in /  33626.4 hPa West 35.2 mph /  56.6 km/h 55.3 mph /  89 km/h 73 % 0.0 in /  0 mm
17:27 11.3 °F /  -11.5 °C 7.0 °F /  -13.9 °C 993.1 in /  33626.4 hPa WSW 40.7 mph /  65.5 km/h 64.0 mph /  103 km/h 72 % 0.0 in /  0 mm
17:32 11.2 °F /  -11.6 °C 7.0 °F /  -13.9 °C 993.1 in /  33626.4 hPa WSW 33.1 mph /  53.3 km/h 64.0 mph /  103 km/h 73 % 0.0 in /  0 mm
17:35 11.1 °F /  -11.6 °C 6.0 °F /  -14.4 °C 993.1 in /  33626.4 hPa West 38.9 mph /  62.6 km/h 62.6 mph /  100.7 km/h 73 % 0.0 in /  0 mm
17:36 11.1 °F /  -11.6 °C 6.0 °F /  -14.4 °C 993.1 in /  33626.4 hPa WSW 42.5 mph /  68.4 km/h 62.6 mph /  100.7 km/h 73 % 0.0 in /  0 mm
17:41 11.0 °F /  -11.7 °C 7.0 °F /  -13.9 °C 993.1 in /  33626.4 hPa WSW 43.6 mph /  70.2 km/h 49.7 mph /  80 km/h 74 % 0.0 in /  0 mm
17:42 10.9 °F /  -11.7 °C 7.0 °F /  -13.9 °C 993.1 in /  33626.4 hPa West 41.4 mph /  66.6 km/h 49.7 mph /  80 km/h 74 % 0.0 in /  0 mm
17:45 10.8 °F /  -11.8 °C 6.0 °F /  -14.4 °C 993.1 in /  33626.4 hPa West 29.9 mph /  48.1 km/h 47.1 mph /  75.8 km/h 74 % 0.0 in /  0 mm
17:50 10.7 °F /  -11.8 °C 6.0 °F /  -14.4 °C 993.1 in /  33626.4 hPa WSW 45.1 mph /  72.6 km/h 48.9 mph /  78.7 km/h 74 % 0.0 in /  0 mm
17:53 10.7 °F /  -11.8 °C 6.0 °F /  -14.4 °C 993.1 in /  33626.4 hPa WSW 46.0 mph /  74 km/h 54.4 mph /  87.5 km/h 74 % 0.0 in /  0 mm
17:58 10.6 °F /  -11.9 °C 6.0 °F /  -14.4 °C 993.1 in /  33626.4 hPa WSW 51.2 mph /  82.4 km/h 54.4 mph /  87.5 km/h 74 % 0.0 in /  0 mm
17:59 10.6 °F /  -11.9 °C 6.0 °F /  -14.4 °C 993.1 in /  33626.4 hPa West 36.4 mph /  58.6 km/h 54.4 mph /  87.5 km/h 74 % 0.0 in /  0 mm
18:04 10.5 °F /  -11.9 °C 6.0 °F /  -14.4 °C 993.1 in /  33626.4 hPa WSW 47.1 mph /  75.8 km/h 54.1 mph /  87.1 km/h 73 % 0.0 in /  0 mm
18:06 10.5 °F /  -11.9 °C 6.0 °F /  -14.4 °C 993.1 in /  33626.4 hPa WSW 36.4 mph /  58.6 km/h 54.1 mph /  87.1 km/h 73 % 0.0 in /  0 mm
18:11 10.3 °F /  -12.1 °C 6.0 °F /  -14.4 °C 993.1 in /  33626.4 hPa WSW 38.9 mph /  62.6 km/h 49.2 mph /  79.2 km/h 73 % 0.0 in /  0 mm
18:16 10.2 °F /  -12.1 °C 6.0 °F /  -14.4 °C 993.1 in /  33626.4 hPa West 45.7 mph /  73.5 km/h 55.0 mph /  88.5 km/h 73 % 0.0 in /  0 mm
18:19 10.3 °F /  -12.1 °C 6.0 °F /  -14.4 °C 993.1 in /  33626.4 hPa SW 36.0 mph /  57.9 km/h 55.0 mph /  88.5 km/h 72 % 0.0 in /  0 mm
18:20 10.2 °F /  -12.1 °C 6.0 °F /  -14.4 °C 993.1 in /  33626.4 hPa West 36.4 mph /  58.6 km/h 55.0 mph /  88.5 km/h 72 % 0.0 in /  0 mm
18:21 10.2 °F /  -12.1 °C 6.0 °F /  -14.4 °C 993.1 in /  33626.4 hPa WSW 30.2 mph /  48.6 km/h 55.0 mph /  88.5 km/h 72 % 0.0 in /  0 mm
18:26 10.2 °F /  -12.1 °C 6.0 °F /  -14.4 °C 994.1 in /  33660.2 hPa WSW 41.4 mph /  66.6 km/h 57.6 mph /  92.7 km/h 72 % 0.0 in /  0 mm
18:28 10.1 °F /  -12.2 °C 6.0 °F /  -14.4 °C 994.1 in /  33660.2 hPa West 47.9 mph /  77.1 km/h 57.6 mph /  92.7 km/h 72 % 0.0 in /  0 mm
18:30 10.2 °F /  -12.1 °C 6.0 °F /  -14.4 °C 994.1 in /  33660.2 hPa WSW 30.9 mph /  49.7 km/h 57.6 mph /  92.7 km/h 72 % 0.0 in /  0 mm
18:31 10.1 °F /  -12.2 °C 6.0 °F /  -14.4 °C 994.1 in /  33660.2 hPa WSW 45.7 mph /  73.5 km/h 57.6 mph /  92.7 km/h 72 % 0.0 in /  0 mm
18:37 10.1 °F /  -12.2 °C 6.0 °F /  -14.4 °C 994.1 in /  33660.2 hPa West 41.7 mph /  67.1 km/h 55.3 mph /  89 km/h 72 % 0.0 in /  0 mm
18:38 10.1 °F /  -12.2 °C 6.0 °F /  -14.4 °C 994.1 in /  33660.2 hPa WSW 49.7 mph /  80 km/h 55.3 mph /  89 km/h 72 % 0.0 in /  0 mm
18:43 10.1 °F /  -12.2 °C 6.0 °F /  -14.4 °C 994.1 in /  33660.2 hPa West 40.7 mph /  65.5 km/h 49.7 mph /  80 km/h 72 % 0.0 in /  0 mm
18:45 10.1 °F /  -12.2 °C 6.0 °F /  -14.4 °C 994.1 in /  33660.2 hPa West 52.1 mph /  83.8 km/h 52.1 mph /  83.8 km/h 72 % 0.0 in /  0 mm
18:46 10.1 °F /  -12.2 °C 6.0 °F /  -14.4 °C 994.1 in /  33660.2 hPa West 23.3 mph /  37.5 km/h 52.1 mph /  83.8 km/h 72 % 0.0 in /  0 mm
18:51 10.1 °F /  -12.2 °C 6.0 °F /  -14.4 °C 994.1 in /  33660.2 hPa WSW 43.9 mph /  70.6 km/h 52.1 mph /  83.8 km/h 73 % 0.0 in /  0 mm
18:56 10.1 °F /  -12.2 °C 6.0 °F /  -14.4 °C 994.1 in /  33660.2 hPa West 35.6 mph /  57.3 km/h 51.8 mph /  83.4 km/h 73 % 0.0 in /  0 mm
18:59 10.0 °F /  -12.2 °C 6.0 °F /  -14.4 °C 994.1 in /  33660.2 hPa WSW 37.5 mph /  60.3 km/h 47.1 mph /  75.8 km/h 74 % 0.0 in /  0 mm
19:04 10.1 °F /  -12.2 °C 6.0 °F /  -14.4 °C 994.1 in /  33660.2 hPa WSW 40.4 mph /  65 km/h 53.3 mph /  85.8 km/h 74 % 0.0 in /  0 mm
19:09 10.0 °F /  -12.2 °C 6.0 °F /  -14.4 °C 994.1 in /  33660.2 hPa West 35.6 mph /  57.3 km/h 53.3 mph /  85.8 km/h 74 % 0.0 in /  0 mm
19:15 10.0 °F /  -12.2 °C 6.0 °F /  -14.4 °C 995.1 in /  33694.1 hPa West 37.5 mph /  60.3 km/h 41.7 mph /  67.1 km/h 74 % 0.0 in /  0 mm
19:20 9.9 °F /  -12.3 °C 6.0 °F /  -14.4 °C 995.1 in /  33694.1 hPa West 32.0 mph /  51.5 km/h 41.7 mph /  67.1 km/h 75 % 0.0 in /  0 mm
19:24 9.9 °F /  -12.3 °C 6.0 °F /  -14.4 °C 995.1 in /  33694.1 hPa West 25.6 mph /  41.2 km/h 43.6 mph /  70.2 km/h 75 % 0.0 in /  0 mm
19:28 9.8 °F /  -12.3 °C 6.0 °F /  -14.4 °C 995.1 in /  33694.1 hPa West 30.9 mph /  49.7 km/h 43.6 mph /  70.2 km/h 75 % 0.0 in /  0 mm
19:30 9.8 °F /  -12.3 °C 6.0 °F /  -14.4 °C 995.1 in /  33694.1 hPa West 42.5 mph /  68.4 km/h 44.2 mph /  71.1 km/h 75 % 0.0 in /  0 mm
19:37 9.7 °F /  -12.4 °C 6.0 °F /  -14.4 °C 995.1 in /  33694.1 hPa West 17.2 mph /  27.7 km/h 44.2 mph /  71.1 km/h 76 % 0.0 in /  0 mm
19:42 9.7 °F /  -12.4 °C 6.0 °F /  -14.4 °C 995.1 in /  33694.1 hPa West 38.1 mph /  61.3 km/h 43.9 mph /  70.6 km/h 75 % 0.0 in /  0 mm
19:45 9.7 °F /  -12.4 °C 6.0 °F /  -14.4 °C 995.1 in /  33694.1 hPa WSW 23.8 mph /  38.3 km/h 43.9 mph /  70.6 km/h 76 % 0.0 in /  0 mm
19:50 9.6 °F /  -12.4 °C 6.0 °F /  -14.4 °C 995.1 in /  33694.1 hPa WSW 33.1 mph /  53.3 km/h 43.9 mph /  70.6 km/h 75 % 0.0 in /  0 mm
19:56 9.7 °F /  -12.4 °C 6.0 °F /  -14.4 °C 996.2 in /  33731.3 hPa WSW 22.7 mph /  36.5 km/h 42.8 mph /  68.9 km/h 75 % 0.0 in /  0 mm
19:57 9.6 °F /  -12.4 °C 6.0 °F /  -14.4 °C 996.2 in /  33731.3 hPa West 35.6 mph /  57.3 km/h 42.8 mph /  68.9 km/h 75 % 0.0 in /  0 mm
20:02 9.5 °F /  -12.5 °C 6.0 °F /  -14.4 °C 996.2 in /  33731.3 hPa WSW 16.9 mph /  27.2 km/h 42.8 mph /  68.9 km/h 75 % 0.0 in /  0 mm
20:07 9.4 °F /  -12.6 °C 6.0 °F /  -14.4 °C 996.2 in /  33731.3 hPa WSW 36.7 mph /  59.1 km/h 45.1 mph /  72.6 km/h 75 % 0.0 in /  0 mm
20:11 9.4 °F /  -12.6 °C 5.0 °F /  -15 °C 996.8 in /  33751.6 hPa West 19.1 mph /  30.7 km/h 45.1 mph /  72.6 km/h 73 % 0.0 in /  0 mm
20:16 9.3 °F /  -12.6 °C 5.0 °F /  -15 °C 996.8 in /  33751.6 hPa WSW 20.6 mph /  33.2 km/h 38.1 mph /  61.3 km/h 73 % 0.0 in /  0 mm
20:20 9.3 °F /  -12.6 °C 5.0 °F /  -15 °C 996.8 in /  33751.6 hPa WSW 25.6 mph /  41.2 km/h 38.1 mph /  61.3 km/h 74 % 0.0 in /  0 mm
20:21 9.2 °F /  -12.7 °C 5.0 °F /  -15 °C 996.8 in /  33751.6 hPa West 23.3 mph /  37.5 km/h 38.1 mph /  61.3 km/h 74 % 0.0 in /  0 mm
20:26 9.3 °F /  -12.6 °C 5.0 °F /  -15 °C 996.8 in /  33751.6 hPa West 20.1 mph /  32.3 km/h 38.1 mph /  61.3 km/h 74 % 0.0 in /  0 mm
20:30 9.2 °F /  -12.7 °C 5.0 °F /  -15 °C 996.8 in /  33751.6 hPa West 27.4 mph /  44.1 km/h 36.4 mph /  58.6 km/h 73 % 0.0 in /  0 mm
20:31 9.2 °F /  -12.7 °C 5.0 °F /  -15 °C 996.8 in /  33751.6 hPa West 16.9 mph /  27.2 km/h 36.4 mph /  58.6 km/h 73 % 0.0 in /  0 mm
20:36 9.1 °F /  -12.7 °C 5.0 °F /  -15 °C 996.8 in /  33751.6 hPa WSW 26.2 mph /  42.2 km/h 33.1 mph /  53.3 km/h 73 % 0.0 in /  0 mm
20:41 8.9 °F /  -12.8 °C 5.0 °F /  -15 °C 996.8 in /  33751.6 hPa WSW 19.8 mph /  31.9 km/h 33.1 mph /  53.3 km/h 74 % 0.0 in /  0 mm
20:46 8.9 °F /  -12.8 °C 5.0 °F /  -15 °C 996.8 in /  33751.6 hPa WSW 24.5 mph /  39.4 km/h 33.1 mph /  53.3 km/h 74 % 0.0 in /  0 mm
20:50 8.9 °F /  -12.8 °C 5.0 °F /  -15 °C 996.8 in /  33751.6 hPa WSW 21.6 mph /  34.8 km/h 40.4 mph /  65 km/h 74 % 0.0 in /  0 mm
20:56 8.9 °F /  -12.8 °C 5.0 °F /  -15 °C 996.8 in /  33751.6 hPa WSW 28.5 mph /  45.9 km/h 40.4 mph /  65 km/h 74 % 0.0 in /  0 mm
20:57 8.9 °F /  -12.8 °C 5.0 °F /  -15 °C 996.8 in /  33751.6 hPa West 20.1 mph /  32.3 km/h 38.5 mph /  62 km/h 74 % 0.0 in /  0 mm
21:03 8.9 °F /  -12.8 °C 5.0 °F /  -15 °C 996.8 in /  33751.6 hPa WSW 24.5 mph /  39.4 km/h 32.0 mph /  51.5 km/h 74 % 0.0 in /  0 mm
21:06 8.8 °F /  -12.9 °C 5.0 °F /  -15 °C 996.8 in /  33751.6 hPa West 16.3 mph /  26.2 km/h 32.0 mph /  51.5 km/h 74 % 0.0 in /  0 mm
21:12 8.8 °F /  -12.9 °C 5.0 °F /  -15 °C 996.8 in /  33751.6 hPa West 20.1 mph /  32.3 km/h 38.5 mph /  62 km/h 74 % 0.0 in /  0 mm
21:13 8.8 °F /  -12.9 °C 5.0 °F /  -15 °C 996.8 in /  33751.6 hPa West 22.7 mph /  36.5 km/h 38.5 mph /  62 km/h 74 % 0.0 in /  0 mm
21:17 8.8 °F /  -12.9 °C 5.0 °F /  -15 °C 996.8 in /  33751.6 hPa West 17.7 mph /  28.5 km/h 39.6 mph /  63.7 km/h 74 % 0.0 in /  0 mm
21:20 8.7 °F /  -12.9 °C 5.0 °F /  -15 °C 996.8 in /  33751.6 hPa West 17.7 mph /  28.5 km/h 39.6 mph /  63.7 km/h 74 % 0.0 in /  0 mm
21:25 8.6 °F /  -13 °C 5.0 °F /  -15 °C 996.8 in /  33751.6 hPa West 18.0 mph /  29 km/h 27.4 mph /  44.1 km/h 74 % 0.0 in /  0 mm
21:30 8.5 °F /  -13.1 °C 5.0 °F /  -15 °C 996.8 in /  33751.6 hPa West 16.3 mph /  26.2 km/h 27.4 mph /  44.1 km/h 75 % 0.0 in /  0 mm
21:44 0.0 °F /  -17.8 °C 5.0 °F /  -15 °C 0.0 in /  0 hPa Calm     0 % 0.0 in /  0 mm
21:49 8.5 °F /  -13.1 °C 5.0 °F /  -15 °C 996.8 in /  33751.6 hPa West 21.2 mph /  34.1 km/h 27.7 mph /  44.6 km/h 76 % 0.0 in /  0 mm
21:51 8.5 °F /  -13.1 °C 5.0 °F /  -15 °C 996.8 in /  33751.6 hPa West 31.7 mph /  51 km/h 31.7 mph /  51 km/h 76 % 0.0 in /  0 mm
21:53 8.5 °F /  -13.1 °C 5.0 °F /  -15 °C 996.8 in /  33751.6 hPa West 26.7 mph /  43 km/h 31.7 mph /  51 km/h 77 % 0.0 in /  0 mm
21:56 8.5 °F /  -13.1 °C 5.0 °F /  -15 °C 996.8 in /  33751.6 hPa WSW 19.5 mph /  31.4 km/h 31.7 mph /  51 km/h 77 % 0.0 in /  0 mm
22:01 8.5 °F /  -13.1 °C 5.0 °F /  -15 °C 996.8 in /  33751.6 hPa West 16.6 mph /  26.7 km/h 36.0 mph /  57.9 km/h 78 % 0.0 in /  0 mm
22:04 8.5 °F /  -13.1 °C 6.0 °F /  -14.4 °C 996.8 in /  33751.6 hPa WSW 17.2 mph /  27.7 km/h 36.0 mph /  57.9 km/h 79 % 0.0 in /  0 mm
22:08 8.5 °F /  -13.1 °C 6.0 °F /  -14.4 °C 996.8 in /  33751.6 hPa WSW 21.9 mph /  35.2 km/h 36.0 mph /  57.9 km/h 79 % 0.0 in /  0 mm
22:09 8.5 °F /  -13.1 °C 6.0 °F /  -14.4 °C 996.8 in /  33751.6 hPa West 25.3 mph /  40.7 km/h 36.0 mph /  57.9 km/h 79 % 0.0 in /  0 mm
22:15 8.5 °F /  -13.1 °C 6.0 °F /  -14.4 °C 996.8 in /  33751.6 hPa West 27.0 mph /  43.5 km/h 32.3 mph /  52 km/h 79 % 0.0 in /  0 mm
22:18 8.5 °F /  -13.1 °C 6.0 °F /  -14.4 °C 996.8 in /  33751.6 hPa West 20.1 mph /  32.3 km/h 32.3 mph /  52 km/h 79 % 0.0 in /  0 mm
22:19 8.5 °F /  -13.1 °C 6.0 °F /  -14.4 °C 996.8 in /  33751.6 hPa WSW 19.8 mph /  31.9 km/h 32.0 mph /  51.5 km/h 79 % 0.0 in /  0 mm
22:28 8.5 °F /  -13.1 °C 6.0 °F /  -14.4 °C 996.8 in /  33751.6 hPa West 17.7 mph /  28.5 km/h 31.4 mph /  50.5 km/h 79 % 0.0 in /  0 mm
22:32 8.5 °F /  -13.1 °C 6.0 °F /  -14.4 °C 996.8 in /  33751.6 hPa West 26.7 mph /  43 km/h 31.4 mph /  50.5 km/h 79 % 0.0 in /  0 mm
22:34 8.5 °F /  -13.1 °C 5.0 °F /  -15 °C 996.8 in /  33751.6 hPa WSW 17.2 mph /  27.7 km/h 31.4 mph /  50.5 km/h 78 % 0.0 in /  0 mm
22:35 8.5 °F /  -13.1 °C 5.0 °F /  -15 °C 996.8 in /  33751.6 hPa West 17.2 mph /  27.7 km/h 31.4 mph /  50.5 km/h 78 % 0.0 in /  0 mm
22:41 8.6 °F /  -13 °C 5.0 °F /  -15 °C 996.8 in /  33751.6 hPa West 23.0 mph /  37 km/h 28.8 mph /  46.3 km/h 78 % 0.0 in /  0 mm
22:42 8.6 °F /  -13 °C 5.0 °F /  -15 °C 996.8 in /  33751.6 hPa WSW 20.9 mph /  33.6 km/h 28.8 mph /  46.3 km/h 78 % 0.0 in /  0 mm
22:44 8.6 °F /  -13 °C 5.0 °F /  -15 °C 996.8 in /  33751.6 hPa WSW 20.9 mph /  33.6 km/h 27.4 mph /  44.1 km/h 78 % 0.0 in /  0 mm
22:46 8.6 °F /  -13 °C 5.0 °F /  -15 °C 996.8 in /  33751.6 hPa WSW 16.6 mph /  26.7 km/h 27.4 mph /  44.1 km/h 78 % 0.0 in /  0 mm
22:50 8.6 °F /  -13 °C 5.0 °F /  -15 °C 996.8 in /  33751.6 hPa WSW 21.2 mph /  34.1 km/h 27.4 mph /  44.1 km/h 78 % 0.0 in /  0 mm
22:52 8.6 °F /  -13 °C 5.0 °F /  -15 °C 996.8 in /  33751.6 hPa WSW 18.3 mph /  29.5 km/h 26.2 mph /  42.2 km/h 78 % 0.0 in /  0 mm
22:54 8.6 °F /  -13 °C 5.0 °F /  -15 °C 996.8 in /  33751.6 hPa West 9.0 mph /  14.5 km/h 26.2 mph /  42.2 km/h 78 % 0.0 in /  0 mm
22:55 8.6 °F /  -13 °C 5.0 °F /  -15 °C 996.8 in /  33751.6 hPa WSW 12.6 mph /  20.3 km/h 26.2 mph /  42.2 km/h 78 % 0.0 in /  0 mm
23:00 8.5 °F /  -13.1 °C 6.0 °F /  -14.4 °C 996.2 in /  33731.3 hPa WSW 12.6 mph /  20.3 km/h 22.7 mph /  36.5 km/h 79 % 0.0 in /  0 mm
23:05 8.4 °F /  -13.1 °C 5.0 °F /  -15 °C 996.2 in /  33731.3 hPa WSW 14.0 mph /  22.5 km/h 21.2 mph /  34.1 km/h 79 % 0.0 in /  0 mm
23:10 8.3 °F /  -13.2 °C 6.0 °F /  -14.4 °C 996.2 in /  33731.3 hPa WSW 15.8 mph /  25.4 km/h 20.9 mph /  33.6 km/h 80 % 0.0 in /  0 mm
23:14 8.2 °F /  -13.2 °C 5.0 °F /  -15 °C 996.8 in /  33751.6 hPa West 9.7 mph /  15.6 km/h 20.9 mph /  33.6 km/h 81 % 0.0 in /  0 mm
23:19 8.1 °F /  -13.3 °C 5.0 °F /  -15 °C 996.8 in /  33751.6 hPa WSW 11.9 mph /  19.2 km/h 19.8 mph /  31.9 km/h 81 % 0.0 in /  0 mm
23:24 8.1 °F /  -13.3 °C 6.0 °F /  -14.4 °C 996.8 in /  33751.6 hPa WSW 12.2 mph /  19.6 km/h 17.7 mph /  28.5 km/h 82 % 0.0 in /  0 mm
23:29 8.2 °F /  -13.2 °C 6.0 °F /  -14.4 °C 996.8 in /  33751.6 hPa WSW 14.0 mph /  22.5 km/h 18.3 mph /  29.5 km/h 83 % 0.0 in /  0 mm
23:34 8.3 °F /  -13.2 °C 6.0 °F /  -14.4 °C 996.8 in /  33751.6 hPa WSW 13.0 mph /  20.9 km/h 21.2 mph /  34.1 km/h 83 % 0.0 in /  0 mm
23:35 8.3 °F /  -13.2 °C 6.0 °F /  -14.4 °C 996.8 in /  33751.6 hPa SW 14.0 mph /  22.5 km/h 21.2 mph /  34.1 km/h 83 % 0.0 in /  0 mm
23:40 8.3 °F /  -13.2 °C 6.0 °F /  -14.4 °C 996.8 in /  33751.6 hPa SSW 13.7 mph /  22 km/h 20.9 mph /  33.6 km/h 83 % 0.0 in /  0 mm
23:45 8.4 °F /  -13.1 °C 6.0 °F /  -14.4 °C 996.8 in /  33751.6 hPa SSW 11.9 mph /  19.2 km/h 20.9 mph /  33.6 km/h 82 % 0.0 in /  0 mm
23:50 8.4 °F /  -13.1 °C 6.0 °F /  -14.4 °C 996.8 in /  33751.6 hPa SW 14.0 mph /  22.5 km/h 19.5 mph /  31.4 km/h 82 % 0.0 in /  0 mm
23:53 8.5 °F /  -13.1 °C 6.0 °F /  -14.4 °C 996.8 in /  33751.6 hPa SW 13.0 mph /  20.9 km/h 19.5 mph /  31.4 km/h 83 % 0.0 in /  0 mm
23:58 8.5 °F /  -13.1 °C 6.0 °F /  -14.4 °C 996.8 in /  33751.6 hPa WSW 14.0 mph /  22.5 km/h 17.7 mph /  28.5 km/h 83 % 0.0 in /  0 mm
Le Gheer Warneton
Courtoisie de Weather Underground - 3 mb

Mise a jour : 23/02/2018 07:38:12
Généré par Cumulus 1.9.4 (1099)